sensor_id;sensor_type;location;lat;lon;timestamp;pressure;altitude;pressure_sealevel;temperature
14023;BMP180;7086;48.116;11.580;2023-05-14T00:01:03;95119.00;;;16.30
14023;BMP180;7086;48.116;11.580;2023-05-14T00:03:32;95190.00;;;16.40
14023;BMP180;7086;48.116;11.580;2023-05-14T00:05:59;95194.00;;;16.20
14023;BMP180;7086;48.116;11.580;2023-05-14T00:08:25;95189.00;;;16.30
14023;BMP180;7086;48.116;11.580;2023-05-14T00:10:54;95192.00;;;16.30
14023;BMP180;7086;48.116;11.580;2023-05-14T00:13:21;95191.00;;;16.30
14023;BMP180;7086;48.116;11.580;2023-05-14T00:15:48;95185.00;;;16.30
14023;BMP180;7086;48.116;11.580;2023-05-14T00:18:15;95189.00;;;16.20
14023;BMP180;7086;48.116;11.580;2023-05-14T00:20:42;95174.00;;;16.20
14023;BMP180;7086;48.116;11.580;2023-05-14T00:23:08;95176.00;;;16.20
14023;BMP180;7086;48.116;11.580;2023-05-14T00:25:35;95177.00;;;16.20
14023;BMP180;7086;48.116;11.580;2023-05-14T00:28:04;95162.00;;;16.20
14023;BMP180;7086;48.116;11.580;2023-05-14T00:30:30;95178.00;;;16.20
14023;BMP180;7086;48.116;11.580;2023-05-14T00:32:57;95181.00;;;16.10
14023;BMP180;7086;48.116;11.580;2023-05-14T00:35:24;95171.00;;;16.20
14023;BMP180;7086;48.116;11.580;2023-05-14T00:37:51;95176.00;;;16.20
14023;BMP180;7086;48.116;11.580;2023-05-14T00:40:18;95161.00;;;16.20
14023;BMP180;7086;48.116;11.580;2023-05-14T00:42:45;95176.00;;;16.20
14023;BMP180;7086;48.116;11.580;2023-05-14T00:45:13;95172.00;;;16.10
14023;BMP180;7086;48.116;11.580;2023-05-14T00:47:40;95180.00;;;16.10
14023;BMP180;7086;48.116;11.580;2023-05-14T00:50:07;95178.00;;;16.10
14023;BMP180;7086;48.116;11.580;2023-05-14T00:52:36;95172.00;;;16.00
14023;BMP180;7086;48.116;11.580;2023-05-14T00:55:04;95166.00;;;16.00
14023;BMP180;7086;48.116;11.580;2023-05-14T00:57:31;95173.00;;;16.00
14023;BMP180;7086;48.116;11.580;2023-05-14T00:59:58;95169.00;;;16.00
14023;BMP180;7086;48.116;11.580;2023-05-14T01:02:26;95176.00;;;16.00
14023;BMP180;7086;48.116;11.580;2023-05-14T01:04:53;95179.00;;;15.90
14023;BMP180;7086;48.116;11.580;2023-05-14T01:07:28;95176.00;;;15.90
14023;BMP180;7086;48.116;11.580;2023-05-14T01:09:59;95176.00;;;15.90
14023;BMP180;7086;48.116;11.580;2023-05-14T01:12:32;95162.00;;;15.90
14023;BMP180;7086;48.116;11.580;2023-05-14T01:15:05;95099.00;;;15.90
14023;BMP180;7086;48.116;11.580;2023-05-14T01:17:39;95159.00;;;15.90
14023;BMP180;7086;48.116;11.580;2023-05-14T01:20:08;95143.00;;;15.90
14023;BMP180;7086;48.116;11.580;2023-05-14T01:22:36;95166.00;;;15.90
14023;BMP180;7086;48.116;11.580;2023-05-14T01:25:04;95161.00;;;15.90
14023;BMP180;7086;48.116;11.580;2023-05-14T01:27:48;95155.00;;;15.90
14023;BMP180;7086;48.116;11.580;2023-05-14T01:30:21;95151.00;;;15.90
14023;BMP180;7086;48.116;11.580;2023-05-14T01:32:52;95156.00;;;15.90
14023;BMP180;7086;48.116;11.580;2023-05-14T01:35:21;95118.00;;;15.80
14023;BMP180;7086;48.116;11.580;2023-05-14T01:37:52;95119.00;;;15.80
14023;BMP180;7086;48.116;11.580;2023-05-14T01:40:21;95151.00;;;15.80
14023;BMP180;7086;48.116;11.580;2023-05-14T01:42:48;95145.00;;;15.80
14023;BMP180;7086;48.116;11.580;2023-05-14T01:45:16;95145.00;;;15.70
14023;BMP180;7086;48.116;11.580;2023-05-14T01:47:43;95131.00;;;15.70
14023;BMP180;7086;48.116;11.580;2023-05-14T01:50:10;95144.00;;;15.70
14023;BMP180;7086;48.116;11.580;2023-05-14T01:52:36;95139.00;;;15.70
14023;BMP180;7086;48.116;11.580;2023-05-14T01:55:06;95099.00;;;15.70
14023;BMP180;7086;48.116;11.580;2023-05-14T01:57:33;95129.00;;;15.70
14023;BMP180;7086;48.116;11.580;2023-05-14T02:00:00;95130.00;;;15.60
14023;BMP180;7086;48.116;11.580;2023-05-14T02:02:26;95134.00;;;15.60
14023;BMP180;7086;48.116;11.580;2023-05-14T02:04:53;95135.00;;;15.60
14023;BMP180;7086;48.116;11.580;2023-05-14T02:07:20;95130.00;;;15.50
14023;BMP180;7086;48.116;11.580;2023-05-14T02:09:47;95090.00;;;15.40
14023;BMP180;7086;48.116;11.580;2023-05-14T02:12:15;95125.00;;;15.40
14023;BMP180;7086;48.116;11.580;2023-05-14T02:14:42;95130.00;;;15.40
14023;BMP180;7086;48.116;11.580;2023-05-14T02:17:09;95133.00;;;15.40
14023;BMP180;7086;48.116;11.580;2023-05-14T02:19:35;95128.00;;;15.40
14023;BMP180;7086;48.116;11.580;2023-05-14T02:22:02;95087.00;;;15.30
14023;BMP180;7086;48.116;11.580;2023-05-14T02:24:29;95127.00;;;15.30
14023;BMP180;7086;48.116;11.580;2023-05-14T02:26:56;95097.00;;;15.20
14023;BMP180;7086;48.116;11.580;2023-05-14T02:29:26;95130.00;;;15.10
14023;BMP180;7086;48.116;11.580;2023-05-14T02:31:53;95088.00;;;15.20
14023;BMP180;7086;48.116;11.580;2023-05-14T02:34:20;95133.00;;;15.20
14023;BMP180;7086;48.116;11.580;2023-05-14T02:36:47;95133.00;;;15.20
14023;BMP180;7086;48.116;11.580;2023-05-14T02:39:14;95147.00;;;15.20
14023;BMP180;7086;48.116;11.580;2023-05-14T02:41:40;95106.00;;;15.20
14023;BMP180;7086;48.116;11.580;2023-05-14T02:44:07;95128.00;;;15.10
14023;BMP180;7086;48.116;11.580;2023-05-14T02:46:35;95113.00;;;15.10
14023;BMP180;7086;48.116;11.580;2023-05-14T02:49:02;95144.00;;;15.00
14023;BMP180;7086;48.116;11.580;2023-05-14T02:51:29;95136.00;;;15.00
14023;BMP180;7086;48.116;11.580;2023-05-14T02:53:56;95113.00;;;15.00
14023;BMP180;7086;48.116;11.580;2023-05-14T02:56:23;95128.00;;;15.00
14023;BMP180;7086;48.116;11.580;2023-05-14T02:58:50;95124.00;;;15.00
14023;BMP180;7086;48.116;11.580;2023-05-14T03:01:17;95122.00;;;15.00
14023;BMP180;7086;48.116;11.580;2023-05-14T03:03:45;95130.00;;;15.00
14023;BMP180;7086;48.116;11.580;2023-05-14T03:06:12;95142.00;;;15.00
14023;BMP180;7086;48.116;11.580;2023-05-14T03:08:39;95111.00;;;15.00
14023;BMP180;7086;48.116;11.580;2023-05-14T03:11:06;95115.00;;;15.00
14023;BMP180;7086;48.116;11.580;2023-05-14T03:13:33;95123.00;;;15.00
14023;BMP180;7086;48.116;11.580;2023-05-14T03:15:59;95016.00;;;15.00
14023;BMP180;7086;48.116;11.580;2023-05-14T03:18:26;95124.00;;;15.00
14023;BMP180;7086;48.116;11.580;2023-05-14T03:20:56;95125.00;;;14.90
14023;BMP180;7086;48.116;11.580;2023-05-14T03:23:23;95116.00;;;14.90
14023;BMP180;7086;48.116;11.580;2023-05-14T03:25:49;95115.00;;;14.90
14023;BMP180;7086;48.116;11.580;2023-05-14T03:28:16;95106.00;;;15.00
14023;BMP180;7086;48.116;11.580;2023-05-14T03:30:43;95108.00;;;14.90
14023;BMP180;7086;48.116;11.580;2023-05-14T03:33:10;95109.00;;;15.00
14023;BMP180;7086;48.116;11.580;2023-05-14T03:35:37;95114.00;;;14.90
14023;BMP180;7086;48.116;11.580;2023-05-14T03:38:05;95112.00;;;14.90
14023;BMP180;7086;48.116;11.580;2023-05-14T03:40:32;95104.00;;;14.90
14023;BMP180;7086;48.116;11.580;2023-05-14T03:42:59;95092.00;;;14.90
14023;BMP180;7086;48.116;11.580;2023-05-14T03:45:25;95106.00;;;14.90
14023;BMP180;7086;48.116;11.580;2023-05-14T03:47:54;95125.00;;;14.90
14023;BMP180;7086;48.116;11.580;2023-05-14T03:50:21;95123.00;;;14.80
14023;BMP180;7086;48.116;11.580;2023-05-14T03:52:49;95108.00;;;14.80
14023;BMP180;7086;48.116;11.580;2023-05-14T03:55:18;95108.00;;;14.90
14023;BMP180;7086;48.116;11.580;2023-05-14T03:57:45;95104.00;;;14.90
14023;BMP180;7086;48.116;11.580;2023-05-14T04:00:12;95110.00;;;14.90
14023;BMP180;7086;48.116;11.580;2023-05-14T04:02:39;95093.00;;;14.80
14023;BMP180;7086;48.116;11.580;2023-05-14T04:05:06;95088.00;;;14.80
14023;BMP180;7086;48.116;11.580;2023-05-14T04:07:33;95106.00;;;14.70
14023;BMP180;7086;48.116;11.580;2023-05-14T04:10:01;95077.00;;;14.70
14023;BMP180;7086;48.116;11.580;2023-05-14T04:12:29;95067.00;;;14.70
14023;BMP180;7086;48.116;11.580;2023-05-14T04:14:56;95091.00;;;14.70
14023;BMP180;7086;48.116;11.580;2023-05-14T04:17:23;95104.00;;;14.70
14023;BMP180;7086;48.116;11.580;2023-05-14T04:19:51;95108.00;;;14.80
14023;BMP180;7086;48.116;11.580;2023-05-14T04:22:18;95094.00;;;14.80
14023;BMP180;7086;48.116;11.580;2023-05-14T04:24:44;95104.00;;;14.80
14023;BMP180;7086;48.116;11.580;2023-05-14T04:27:13;95070.00;;;14.80
14023;BMP180;7086;48.116;11.580;2023-05-14T04:29:46;95114.00;;;14.70
14023;BMP180;7086;48.116;11.580;2023-05-14T04:32:13;95115.00;;;14.80
14023;BMP180;7086;48.116;11.580;2023-05-14T04:34:40;95118.00;;;14.80
14023;BMP180;7086;48.116;11.580;2023-05-14T04:37:06;95118.00;;;14.80
14023;BMP180;7086;48.116;11.580;2023-05-14T04:39:34;95102.00;;;14.80
14023;BMP180;7086;48.116;11.580;2023-05-14T04:42:01;95114.00;;;14.80
14023;BMP180;7086;48.116;11.580;2023-05-14T04:44:28;95104.00;;;14.80
14023;BMP180;7086;48.116;11.580;2023-05-14T04:46:56;95109.00;;;14.80
14023;BMP180;7086;48.116;11.580;2023-05-14T04:49:23;95119.00;;;14.80
14023;BMP180;7086;48.116;11.580;2023-05-14T04:51:49;95118.00;;;14.80
14023;BMP180;7086;48.116;11.580;2023-05-14T04:54:16;95054.00;;;14.80
14023;BMP180;7086;48.116;11.580;2023-05-14T04:56:43;95100.00;;;14.80
14023;BMP180;7086;48.116;11.580;2023-05-14T04:59:10;95113.00;;;14.80
14023;BMP180;7086;48.116;11.580;2023-05-14T05:01:37;95115.00;;;14.80
14023;BMP180;7086;48.116;11.580;2023-05-14T05:04:05;95132.00;;;14.90
14023;BMP180;7086;48.116;11.580;2023-05-14T05:06:32;95108.00;;;14.90
14023;BMP180;7086;48.116;11.580;2023-05-14T05:08:58;95085.00;;;14.80
14023;BMP180;7086;48.116;11.580;2023-05-14T05:11:25;95122.00;;;14.90
14023;BMP180;7086;48.116;11.580;2023-05-14T05:13:52;95127.00;;;14.90
14023;BMP180;7086;48.116;11.580;2023-05-14T05:16:19;95087.00;;;14.90
14023;BMP180;7086;48.116;11.580;2023-05-14T05:18:46;95119.00;;;14.90
14023;BMP180;7086;48.116;11.580;2023-05-14T05:21:14;95104.00;;;14.90
14023;BMP180;7086;48.116;11.580;2023-05-14T05:23:41;95112.00;;;14.90
14023;BMP180;7086;48.116;11.580;2023-05-14T05:26:07;95118.00;;;14.90
14023;BMP180;7086;48.116;11.580;2023-05-14T05:28:34;95115.00;;;14.90
14023;BMP180;7086;48.116;11.580;2023-05-14T05:31:01;95114.00;;;14.90
14023;BMP180;7086;48.116;11.580;2023-05-14T05:33:28;95115.00;;;14.90
14023;BMP180;7086;48.116;11.580;2023-05-14T05:35:55;95111.00;;;14.90
14023;BMP180;7086;48.116;11.580;2023-05-14T05:38:23;95108.00;;;14.90
14023;BMP180;7086;48.116;11.580;2023-05-14T05:40:50;95078.00;;;14.90
14023;BMP180;7086;48.116;11.580;2023-05-14T05:43:16;95102.00;;;14.90
14023;BMP180;7086;48.116;11.580;2023-05-14T05:45:43;95105.00;;;14.90
14023;BMP180;7086;48.116;11.580;2023-05-14T05:48:10;95116.00;;;15.00
14023;BMP180;7086;48.116;11.580;2023-05-14T05:50:37;95113.00;;;15.00
14023;BMP180;7086;48.116;11.580;2023-05-14T05:53:04;95086.00;;;15.10
14023;BMP180;7086;48.116;11.580;2023-05-14T05:55:32;95047.00;;;15.10
14023;BMP180;7086;48.116;11.580;2023-05-14T05:57:59;95094.00;;;15.20
14023;BMP180;7086;48.116;11.580;2023-05-14T06:00:26;95126.00;;;15.20
14023;BMP180;7086;48.116;11.580;2023-05-14T06:02:53;95041.00;;;15.20
14023;BMP180;7086;48.116;11.580;2023-05-14T06:05:20;95092.00;;;15.30
14023;BMP180;7086;48.116;11.580;2023-05-14T06:07:47;95122.00;;;15.20
14023;BMP180;7086;48.116;11.580;2023-05-14T06:10:14;95122.00;;;15.20
14023;BMP180;7086;48.116;11.580;2023-05-14T06:12:42;95125.00;;;15.20
14023;BMP180;7086;48.116;11.580;2023-05-14T06:15:09;95109.00;;;15.20
14023;BMP180;7086;48.116;11.580;2023-05-14T06:17:37;95114.00;;;15.20
14023;BMP180;7086;48.116;11.580;2023-05-14T06:20:05;95081.00;;;15.30
14023;BMP180;7086;48.116;11.580;2023-05-14T06:22:32;95110.00;;;15.30
14023;BMP180;7086;48.116;11.580;2023-05-14T06:24:59;95105.00;;;15.30
14023;BMP180;7086;48.116;11.580;2023-05-14T06:27:26;95113.00;;;15.20
14023;BMP180;7086;48.116;11.580;2023-05-14T06:29:54;95106.00;;;15.40
14023;BMP180;7086;48.116;11.580;2023-05-14T06:32:27;95121.00;;;15.40
14023;BMP180;7086;48.116;11.580;2023-05-14T06:34:54;95111.00;;;15.50
14023;BMP180;7086;48.116;11.580;2023-05-14T06:37:20;95107.00;;;15.50
14023;BMP180;7086;48.116;11.580;2023-05-14T06:39:48;95103.00;;;15.60
14023;BMP180;7086;48.116;11.580;2023-05-14T06:42:17;95125.00;;;15.70
14023;BMP180;7086;48.116;11.580;2023-05-14T06:44:44;95108.00;;;15.70
14023;BMP180;7086;48.116;11.580;2023-05-14T06:47:13;95102.00;;;15.70
14023;BMP180;7086;48.116;11.580;2023-05-14T06:49:39;95131.00;;;15.80
14023;BMP180;7086;48.116;11.580;2023-05-14T06:52:06;95082.00;;;15.80
14023;BMP180;7086;48.116;11.580;2023-05-14T06:54:33;95120.00;;;15.80
14023;BMP180;7086;48.116;11.580;2023-05-14T06:57:00;95131.00;;;15.90
14023;BMP180;7086;48.116;11.580;2023-05-14T06:59:27;95125.00;;;15.80
14023;BMP180;7086;48.116;11.580;2023-05-14T07:01:54;95117.00;;;15.90
14023;BMP180;7086;48.116;11.580;2023-05-14T07:04:22;95120.00;;;15.90
14023;BMP180;7086;48.116;11.580;2023-05-14T07:06:49;95100.00;;;16.00
14023;BMP180;7086;48.116;11.580;2023-05-14T07:09:16;95104.00;;;16.00
14023;BMP180;7086;48.116;11.580;2023-05-14T07:11:42;95071.00;;;16.10
14023;BMP180;7086;48.116;11.580;2023-05-14T07:14:09;95067.00;;;16.10
14023;BMP180;7086;48.116;11.580;2023-05-14T07:16:36;95075.00;;;16.20
14023;BMP180;7086;48.116;11.580;2023-05-14T07:19:03;95086.00;;;16.40
14023;BMP180;7086;48.116;11.580;2023-05-14T07:21:31;95075.00;;;16.50
14023;BMP180;7086;48.116;11.580;2023-05-14T07:23:58;95073.00;;;16.60
14023;BMP180;7086;48.116;11.580;2023-05-14T07:26:25;95071.00;;;16.70
14023;BMP180;7086;48.116;11.580;2023-05-14T07:28:52;95083.00;;;16.70
14023;BMP180;7086;48.116;11.580;2023-05-14T07:31:18;95091.00;;;16.40
14023;BMP180;7086;48.116;11.580;2023-05-14T07:33:45;95063.00;;;16.60
14023;BMP180;7086;48.116;11.580;2023-05-14T07:36:12;95055.00;;;16.40
14023;BMP180;7086;48.116;11.580;2023-05-14T07:38:40;95069.00;;;16.50
14023;BMP180;7086;48.116;11.580;2023-05-14T07:41:07;95080.00;;;16.50
14023;BMP180;7086;48.116;11.580;2023-05-14T07:43:35;95016.00;;;16.50
14023;BMP180;7086;48.116;11.580;2023-05-14T07:46:03;95075.00;;;16.50
14023;BMP180;7086;48.116;11.580;2023-05-14T07:48:29;95079.00;;;16.50
14023;BMP180;7086;48.116;11.580;2023-05-14T07:50:56;95056.00;;;16.50
14023;BMP180;7086;48.116;11.580;2023-05-14T07:53:23;95061.00;;;16.40
14023;BMP180;7086;48.116;11.580;2023-05-14T07:55:52;95068.00;;;16.50
14023;BMP180;7086;48.116;11.580;2023-05-14T07:58:18;95068.00;;;16.60
14023;BMP180;7086;48.116;11.580;2023-05-14T08:00:45;95079.00;;;16.60
14023;BMP180;7086;48.116;11.580;2023-05-14T08:03:12;95006.00;;;16.80
14023;BMP180;7086;48.116;11.580;2023-05-14T08:05:41;95063.00;;;16.90
14023;BMP180;7086;48.116;11.580;2023-05-14T08:08:08;95068.00;;;16.90
14023;BMP180;7086;48.116;11.580;2023-05-14T08:10:36;95068.00;;;16.90
14023;BMP180;7086;48.116;11.580;2023-05-14T08:13:08;95078.00;;;17.00
14023;BMP180;7086;48.116;11.580;2023-05-14T08:15:35;95075.00;;;17.00
14023;BMP180;7086;48.116;11.580;2023-05-14T08:18:04;95097.00;;;16.90
14023;BMP180;7086;48.116;11.580;2023-05-14T08:20:32;95081.00;;;16.90
14023;BMP180;7086;48.116;11.580;2023-05-14T08:22:59;95059.00;;;16.80
14023;BMP180;7086;48.116;11.580;2023-05-14T08:25:26;95000.00;;;16.80
14023;BMP180;7086;48.116;11.580;2023-05-14T08:27:53;95088.00;;;16.70
14023;BMP180;7086;48.116;11.580;2023-05-14T08:30:22;95079.00;;;16.50
14023;BMP180;7086;48.116;11.580;2023-05-14T08:32:49;95089.00;;;16.60
14023;BMP180;7086;48.116;11.580;2023-05-14T08:35:17;95054.00;;;16.50
14023;BMP180;7086;48.116;11.580;2023-05-14T08:37:44;95093.00;;;16.50
14023;BMP180;7086;48.116;11.580;2023-05-14T08:40:11;95074.00;;;16.50
14023;BMP180;7086;48.116;11.580;2023-05-14T08:42:39;95032.00;;;16.60
14023;BMP180;7086;48.116;11.580;2023-05-14T08:45:15;95069.00;;;16.60
14023;BMP180;7086;48.116;11.580;2023-05-14T08:47:48;94992.00;;;16.60
14023;BMP180;7086;48.116;11.580;2023-05-14T08:50:17;95066.00;;;16.60
14023;BMP180;7086;48.116;11.580;2023-05-14T08:52:48;95073.00;;;16.70
14023;BMP180;7086;48.116;11.580;2023-05-14T08:55:15;95075.00;;;16.40
14023;BMP180;7086;48.116;11.580;2023-05-14T08:57:43;94990.00;;;16.70
14023;BMP180;7086;48.116;11.580;2023-05-14T09:00:11;95082.00;;;16.70
14023;BMP180;7086;48.116;11.580;2023-05-14T09:02:40;95068.00;;;16.80
14023;BMP180;7086;48.116;11.580;2023-05-14T09:05:08;95066.00;;;16.80
14023;BMP180;7086;48.116;11.580;2023-05-14T09:07:35;95059.00;;;16.80
14023;BMP180;7086;48.116;11.580;2023-05-14T09:10:08;95029.00;;;16.90
14023;BMP180;7086;48.116;11.580;2023-05-14T09:12:35;95064.00;;;16.90
14023;BMP180;7086;48.116;11.580;2023-05-14T09:15:02;95064.00;;;16.90
14023;BMP180;7086;48.116;11.580;2023-05-14T09:17:29;95034.00;;;16.80
14023;BMP180;7086;48.116;11.580;2023-05-14T09:19:57;95060.00;;;16.80
14023;BMP180;7086;48.116;11.580;2023-05-14T09:22:28;95001.00;;;16.70
14023;BMP180;7086;48.116;11.580;2023-05-14T09:25:04;95073.00;;;16.70
14023;BMP180;7086;48.116;11.580;2023-05-14T09:27:34;95057.00;;;16.70
14023;BMP180;7086;48.116;11.580;2023-05-14T09:30:07;95061.00;;;16.80
14023;BMP180;7086;48.116;11.580;2023-05-14T09:32:38;95060.00;;;16.60
14023;BMP180;7086;48.116;11.580;2023-05-14T09:35:12;95047.00;;;16.90
14023;BMP180;7086;48.116;11.580;2023-05-14T09:37:45;95077.00;;;17.00
14023;BMP180;7086;48.116;11.580;2023-05-14T09:40:19;95050.00;;;17.10
14023;BMP180;7086;48.116;11.580;2023-05-14T09:42:46;94987.00;;;17.20
14023;BMP180;7086;48.116;11.580;2023-05-14T09:45:14;95073.00;;;17.30
14023;BMP180;7086;48.116;11.580;2023-05-14T09:47:41;95051.00;;;17.30
14023;BMP180;7086;48.116;11.580;2023-05-14T09:50:09;95040.00;;;17.40
14023;BMP180;7086;48.116;11.580;2023-05-14T09:52:37;95065.00;;;17.40
14023;BMP180;7086;48.116;11.580;2023-05-14T09:55:17;95073.00;;;17.40
14023;BMP180;7086;48.116;11.580;2023-05-14T09:57:45;95017.00;;;17.40
14023;BMP180;7086;48.116;11.580;2023-05-14T10:00:15;95047.00;;;17.40
14023;BMP180;7086;48.116;11.580;2023-05-14T10:02:57;95050.00;;;17.40
14023;BMP180;7086;48.116;11.580;2023-05-14T10:05:24;94975.00;;;17.40
14023;BMP180;7086;48.116;11.580;2023-05-14T10:07:53;95036.00;;;17.40
14023;BMP180;7086;48.116;11.580;2023-05-14T10:10:35;94959.00;;;16.80
14023;BMP180;7086;48.116;11.580;2023-05-14T10:13:13;94961.00;;;17.20
14023;BMP180;7086;48.116;11.580;2023-05-14T10:15:45;95012.00;;;17.10
14023;BMP180;7086;48.116;11.580;2023-05-14T10:18:17;95062.00;;;17.10
14023;BMP180;7086;48.116;11.580;2023-05-14T10:20:47;95058.00;;;17.10
14023;BMP180;7086;48.116;11.580;2023-05-14T10:23:17;95059.00;;;17.10
14023;BMP180;7086;48.116;11.580;2023-05-14T10:25:46;95061.00;;;17.20
14023;BMP180;7086;48.116;11.580;2023-05-14T10:28:16;95057.00;;;17.20
14023;BMP180;7086;48.116;11.580;2023-05-14T10:30:44;95015.00;;;17.30
14023;BMP180;7086;48.116;11.580;2023-05-14T10:33:13;94976.00;;;17.30
14023;BMP180;7086;48.116;11.580;2023-05-14T10:35:57;95062.00;;;17.30
14023;BMP180;7086;48.116;11.580;2023-05-14T10:38:26;94984.00;;;17.20
14023;BMP180;7086;48.116;11.580;2023-05-14T10:41:03;95039.00;;;17.30
14023;BMP180;7086;48.116;11.580;2023-05-14T10:43:35;95047.00;;;17.30
14023;BMP180;7086;48.116;11.580;2023-05-14T10:46:03;95063.00;;;17.30
14023;BMP180;7086;48.116;11.580;2023-05-14T10:48:31;95034.00;;;17.30
14023;BMP180;7086;48.116;11.580;2023-05-14T10:51:00;95000.00;;;17.40
14023;BMP180;7086;48.116;11.580;2023-05-14T10:53:32;95069.00;;;17.40
14023;BMP180;7086;48.116;11.580;2023-05-14T10:56:04;95055.00;;;17.40
14023;BMP180;7086;48.116;11.580;2023-05-14T10:58:34;95054.00;;;17.40
14023;BMP180;7086;48.116;11.580;2023-05-14T11:01:02;95058.00;;;17.40
14023;BMP180;7086;48.116;11.580;2023-05-14T11:03:31;95075.00;;;17.40
14023;BMP180;7086;48.116;11.580;2023-05-14T11:06:05;94960.00;;;17.40
14023;BMP180;7086;48.116;11.580;2023-05-14T11:08:33;95083.00;;;17.00
14023;BMP180;7086;48.116;11.580;2023-05-14T11:11:01;95054.00;;;17.40
14023;BMP180;7086;48.116;11.580;2023-05-14T11:13:31;95041.00;;;17.50
14023;BMP180;7086;48.116;11.580;2023-05-14T11:16:00;95002.00;;;17.50
14023;BMP180;7086;48.116;11.580;2023-05-14T11:18:30;95044.00;;;17.50
14023;BMP180;7086;48.116;11.580;2023-05-14T11:21:11;95054.00;;;17.60
14023;BMP180;7086;48.116;11.580;2023-05-14T11:23:38;95030.00;;;17.60
14023;BMP180;7086;48.116;11.580;2023-05-14T11:26:08;95023.00;;;17.50
14023;BMP180;7086;48.116;11.580;2023-05-14T11:28:39;94957.00;;;17.30
14023;BMP180;7086;48.116;11.580;2023-05-14T11:31:07;95033.00;;;17.70
14023;BMP180;7086;48.116;11.580;2023-05-14T11:33:34;95025.00;;;17.90
14023;BMP180;7086;48.116;11.580;2023-05-14T11:36:03;95018.00;;;17.90
14023;BMP180;7086;48.116;11.580;2023-05-14T11:38:30;95034.00;;;17.90
14023;BMP180;7086;48.116;11.580;2023-05-14T11:40:58;95029.00;;;18.00
14023;BMP180;7086;48.116;11.580;2023-05-14T11:43:25;95024.00;;;18.00
14023;BMP180;7086;48.116;11.580;2023-05-14T11:45:55;95020.00;;;18.00
14023;BMP180;7086;48.116;11.580;2023-05-14T11:48:37;95009.00;;;18.10
14023;BMP180;7086;48.116;11.580;2023-05-14T11:51:05;94990.00;;;18.20
14023;BMP180;7086;48.116;11.580;2023-05-14T11:53:33;95013.00;;;18.30
14023;BMP180;7086;48.116;11.580;2023-05-14T11:56:01;95006.00;;;18.40
14023;BMP180;7086;48.116;11.580;2023-05-14T11:58:31;94978.00;;;18.50
14023;BMP180;7086;48.116;11.580;2023-05-14T12:01:00;94931.00;;;18.80
14023;BMP180;7086;48.116;11.580;2023-05-14T12:03:27;94971.00;;;18.90
14023;BMP180;7086;48.116;11.580;2023-05-14T12:05:58;94884.00;;;19.10
14023;BMP180;7086;48.116;11.580;2023-05-14T12:08:27;95026.00;;;18.70
14023;BMP180;7086;48.116;11.580;2023-05-14T12:10:54;94977.00;;;19.30
14023;BMP180;7086;48.116;11.580;2023-05-14T12:13:25;94983.00;;;19.40
14023;BMP180;7086;48.116;11.580;2023-05-14T12:15:54;94974.00;;;19.50
14023;BMP180;7086;48.116;11.580;2023-05-14T12:18:27;94966.00;;;19.70
14023;BMP180;7086;48.116;11.580;2023-05-14T12:21:01;94896.00;;;19.80
14023;BMP180;7086;48.116;11.580;2023-05-14T12:23:29;94853.00;;;19.90
14023;BMP180;7086;48.116;11.580;2023-05-14T12:26:02;94908.00;;;20.10
14023;BMP180;7086;48.116;11.580;2023-05-14T12:28:30;94877.00;;;20.20
14023;BMP180;7086;48.116;11.580;2023-05-14T12:30:58;94936.00;;;20.30
14023;BMP180;7086;48.116;11.580;2023-05-14T12:33:26;94939.00;;;20.40
14023;BMP180;7086;48.116;11.580;2023-05-14T12:35:54;94949.00;;;20.50
14023;BMP180;7086;48.116;11.580;2023-05-14T12:38:26;94909.00;;;20.60
14023;BMP180;7086;48.116;11.580;2023-05-14T12:40:53;94904.00;;;20.80
14023;BMP180;7086;48.116;11.580;2023-05-14T12:43:22;94935.00;;;20.90
14023;BMP180;7086;48.116;11.580;2023-05-14T12:45:49;94951.00;;;21.00
14023;BMP180;7086;48.116;11.580;2023-05-14T12:48:16;94912.00;;;21.10
14023;BMP180;7086;48.116;11.580;2023-05-14T12:50:46;94935.00;;;21.10
14023;BMP180;7086;48.116;11.580;2023-05-14T12:53:14;94911.00;;;21.20
14023;BMP180;7086;48.116;11.580;2023-05-14T12:55:43;94880.00;;;21.30
14023;BMP180;7086;48.116;11.580;2023-05-14T12:58:13;94978.00;;;21.20
14023;BMP180;7086;48.116;11.580;2023-05-14T13:00:42;94930.00;;;21.40
14023;BMP180;7086;48.116;11.580;2023-05-14T13:03:09;94905.00;;;21.20
14023;BMP180;7086;48.116;11.580;2023-05-14T13:05:36;94900.00;;;21.30
14023;BMP180;7086;48.116;11.580;2023-05-14T13:08:04;94929.00;;;21.20
14023;BMP180;7086;48.116;11.580;2023-05-14T13:10:31;94922.00;;;21.20
14023;BMP180;7086;48.116;11.580;2023-05-14T13:12:58;94911.00;;;21.10
14023;BMP180;7086;48.116;11.580;2023-05-14T13:15:26;94915.00;;;21.10
14023;BMP180;7086;48.116;11.580;2023-05-14T13:17:53;94914.00;;;21.10
14023;BMP180;7086;48.116;11.580;2023-05-14T13:20:20;94910.00;;;21.10
14023;BMP180;7086;48.116;11.580;2023-05-14T13:22:47;94899.00;;;21.10
14023;BMP180;7086;48.116;11.580;2023-05-14T13:25:16;94889.00;;;21.20
14023;BMP180;7086;48.116;11.580;2023-05-14T13:27:43;94892.00;;;21.20
14023;BMP180;7086;48.116;11.580;2023-05-14T13:30:10;94890.00;;;21.20
14023;BMP180;7086;48.116;11.580;2023-05-14T13:32:37;94865.00;;;21.20
14023;BMP180;7086;48.116;11.580;2023-05-14T13:35:04;94884.00;;;21.20
14023;BMP180;7086;48.116;11.580;2023-05-14T13:37:32;94884.00;;;21.30
14023;BMP180;7086;48.116;11.580;2023-05-14T13:39:58;94878.00;;;21.40
14023;BMP180;7086;48.116;11.580;2023-05-14T13:42:27;94896.00;;;21.40
14023;BMP180;7086;48.116;11.580;2023-05-14T13:44:53;94867.00;;;21.50
14023;BMP180;7086;48.116;11.580;2023-05-14T13:47:20;94880.00;;;21.60
14023;BMP180;7086;48.116;11.580;2023-05-14T13:49:47;94877.00;;;21.60
14023;BMP180;7086;48.116;11.580;2023-05-14T13:52:14;94871.00;;;21.60
14023;BMP180;7086;48.116;11.580;2023-05-14T13:54:41;94867.00;;;21.60
14023;BMP180;7086;48.116;11.580;2023-05-14T13:57:07;94862.00;;;21.60
14023;BMP180;7086;48.116;11.580;2023-05-14T13:59:35;94832.00;;;21.60
14023;BMP180;7086;48.116;11.580;2023-05-14T14:02:03;94849.00;;;21.70
14023;BMP180;7086;48.116;11.580;2023-05-14T14:04:30;94854.00;;;21.70
14023;BMP180;7086;48.116;11.580;2023-05-14T14:06:57;94854.00;;;21.80
14023;BMP180;7086;48.116;11.580;2023-05-14T14:09:23;94848.00;;;21.90
14023;BMP180;7086;48.116;11.580;2023-05-14T14:11:51;94845.00;;;21.90
14023;BMP180;7086;48.116;11.580;2023-05-14T14:14:17;94852.00;;;22.00